Time;durP1;ratioP1;P1;durP2;ratioP2;P2;SDS_P1;SDS_P2;PMS_P1;PMS_P2;Temp;Humidity;BMP_temperature;BMP_pressure;BME280_temperature;BME280_humidity;BME280_pressure;Samples;Min_cycle;Max_cycle;Signal;HPM_P1;HPM_P2
2023/06/22 00:00:44;;;;;;;8.07;4.95;;;;;;;;;;7396566;19;20021;-61
2023/06/22 00:03:09;;;;;;;10.95;5.05;;;;;;;;;;7373741;19;20060;-61
2023/06/22 00:05:35;;;;;;;8.10;5.35;;;;;;;;;;7371755;19;20664;-61
2023/06/22 00:08:04;;;;;;;8.07;4.65;;;;;;;;;;7371190;19;20015;-62
2023/06/22 00:10:30;;;;;;;7.65;5.15;;;;;;;;;;7370033;19;20015;-61
2023/06/22 00:12:55;;;;;;;13.82;5.72;;;;;;;;;;7370690;19;20010;-62
2023/06/22 00:15:20;;;;;;;10.57;5.00;;;;;;;;;;7392302;19;20006;-62
2023/06/22 00:17:46;;;;;;;11.00;5.68;;;;;;;;;;7368959;19;20014;-61
2023/06/22 00:20:11;;;;;;;12.73;5.60;;;;;;;;;;7370820;19;20010;-62
2023/06/22 00:22:38;;;;;;;8.13;5.28;;;;;;;;;;7371796;19;20030;-62
2023/06/22 00:25:07;;;;;;;7.45;5.07;;;;;;;;;;7374715;19;20034;-61
2023/06/22 00:27:32;;;;;;;9.70;5.57;;;;;;;;;;7393667;19;20022;-62
2023/06/22 00:29:57;;;;;;;8.60;4.80;;;;;;;;;;7374143;19;20010;-61
2023/06/22 00:32:22;;;;;;;9.50;5.18;;;;;;;;;;7375453;19;20346;-61
2023/06/22 00:34:48;;;;;;;8.15;5.20;;;;;;;;;;7376298;19;20007;-60
2023/06/22 00:37:13;;;;;;;7.70;4.85;;;;;;;;;;7373483;19;20703;-64
2023/06/22 00:39:38;;;;;;;9.27;5.05;;;;;;;;;;7394645;19;20006;-62
2023/06/22 00:42:04;;;;;;;11.30;5.30;;;;;;;;;;7374201;19;20031;-60
2023/06/22 00:44:29;;;;;;;11.50;5.82;;;;;;;;;;7375256;19;20020;-60
2023/06/22 00:46:55;;;;;;;8.98;5.75;;;;;;;;;;7375553;19;20023;-63
2023/06/22 00:49:21;;;;;;;13.95;5.97;;;;;;;;;;7377130;19;20010;-61
2023/06/22 00:51:47;;;;;;;10.38;6.07;;;;;;;;;;7397552;19;20346;-60
2023/06/22 00:54:13;;;;;;;11.07;6.13;;;;;;;;;;7373164;19;20508;-62
2023/06/22 00:56:40;;;;;;;12.80;6.32;;;;;;;;;;7372904;19;20039;-62
2023/06/22 00:59:06;;;;;;;9.48;5.78;;;;;;;;;;7373453;19;20021;-62
2023/06/22 01:01:31;;;;;;;9.27;5.90;;;;;;;;;;7372522;19;20007;-61
2023/06/22 01:03:58;;;;;;;9.20;6.00;;;;;;;;;;7372476;19;20014;-61
2023/06/22 01:06:37;;;;;;;11.32;6.53;;;;;;;;;;7392375;19;20673;-61
2023/06/22 01:09:15;;;;;;;7.72;4.55;;;;;;;;;;7370843;19;20017;-60
2023/06/22 01:11:54;;;;;;;10.70;5.28;;;;;;;;;;7370768;19;20067;-61
2023/06/22 01:14:53;;;;;;;10.80;6.20;;;;;;;;;;7372065;19;20547;-62
2023/06/22 01:17:19;;;;;;;11.63;6.50;;;;;;;;;;7368527;19;20118;-62
2023/06/22 01:19:54;;;;;;;10.00;6.75;;;;;;;;;;7371516;19;20038;-62
2023/06/22 01:22:22;;;;;;;10.90;6.85;;;;;;;;;;7371221;19;20423;-62
2023/06/22 01:24:59;;;;;;;13.00;7.07;;;;;;;;;;7393774;19;20062;-61
2023/06/22 01:27:56;;;;;;;13.65;8.35;;;;;;;;;;7369582;19;20022;-62
2023/06/22 01:30:26;;;;;;;12.82;7.05;;;;;;;;;;7370165;19;20684;-62
2023/06/22 01:32:53;;;;;;;15.00;7.50;;;;;;;;;;7369170;19;20007;-62
2023/06/22 01:35:20;;;;;;;11.40;7.97;;;;;;;;;;7370983;19;20046;-62
2023/06/22 01:37:46;;;;;;;14.38;7.75;;;;;;;;;;7368441;19;20017;-60
2023/06/22 01:40:12;;;;;;;15.13;7.97;;;;;;;;;;7369097;19;20014;-64
2023/06/22 01:42:38;;;;;;;13.63;7.80;;;;;;;;;;7389871;19;20453;-63
2023/06/22 01:45:05;;;;;;;13.07;7.60;;;;;;;;;;7369363;19;20011;-61
2023/06/22 01:47:31;;;;;;;13.05;7.88;;;;;;;;;;7367529;19;20033;-62
2023/06/22 01:49:57;;;;;;;17.05;9.18;;;;;;;;;;7369891;19;20699;-62
2023/06/22 01:52:22;;;;;;;12.25;7.72;;;;;;;;;;7369582;19;20059;-63
2023/06/22 01:54:48;;;;;;;15.25;8.27;;;;;;;;;;7393196;19;20764;-63
2023/06/22 01:57:13;;;;;;;10.15;7.50;;;;;;;;;;7366724;19;20014;-62
2023/06/22 01:59:58;;;;;;;14.15;8.35;;;;;;;;;;7366794;19;20074;-62
2023/06/22 02:02:29;;;;;;;13.90;8.48;;;;;;;;;;7368049;19;20363;-61
2023/06/22 02:05:04;;;;;;;13.35;8.25;;;;;;;;;;7370143;19;20115;-63
2023/06/22 02:07:37;;;;;;;12.85;8.20;;;;;;;;;;7369213;19;20081;-62
2023/06/22 02:10:04;;;;;;;11.52;7.75;;;;;;;;;;7366241;19;20041;-61
2023/06/22 02:12:31;;;;;;;11.40;7.90;;;;;;;;;;7390465;19;20364;-63
2023/06/22 02:14:58;;;;;;;10.98;6.78;;;;;;;;;;7369789;19;20480;-61
2023/06/22 02:17:24;;;;;;;13.07;7.18;;;;;;;;;;7368061;19;20410;-63
2023/06/22 02:19:49;;;;;;;11.05;7.22;;;;;;;;;;7370017;19;20020;-63
2023/06/22 02:22:14;;;;;;;11.80;7.38;;;;;;;;;;7370494;19;20074;-63
2023/06/22 02:24:40;;;;;;;13.88;7.30;;;;;;;;;;7391981;19;20018;-59
2023/06/22 02:27:07;;;;;;;10.98;7.80;;;;;;;;;;7368069;19;20085;-58
2023/06/22 02:29:32;;;;;;;11.93;7.63;;;;;;;;;;7367652;19;20019;-61
2023/06/22 02:31:58;;;;;;;10.63;7.05;;;;;;;;;;7370056;19;20027;-61
2023/06/22 02:34:23;;;;;;;9.40;7.03;;;;;;;;;;7369712;19;20041;-61
2023/06/22 02:36:52;;;;;;;12.48;6.90;;;;;;;;;;7379566;19;20031;-62
2023/06/22 02:39:22;;;;;;;11.25;7.38;;;;;;;;;;7391443;19;20006;-61
2023/06/22 02:41:47;;;;;;;10.13;6.95;;;;;;;;;;7368405;19;20454;-63
2023/06/22 02:44:12;;;;;;;10.95;7.65;;;;;;;;;;7369755;19;20010;-62
2023/06/22 02:46:37;;;;;;;10.32;6.95;;;;;;;;;;7368468;19;20010;-62
2023/06/22 02:49:03;;;;;;;11.90;6.85;;;;;;;;;;7371916;19;20556;-62
2023/06/22 02:51:28;;;;;;;10.73;6.88;;;;;;;;;;7392920;19;20003;-61
2023/06/22 02:53:57;;;;;;;11.52;6.93;;;;;;;;;;7368083;19;20014;-63
2023/06/22 02:56:24;;;;;;;11.07;7.30;;;;;;;;;;7368965;19;20025;-60
2023/06/22 02:58:50;;;;;;;13.40;7.75;;;;;;;;;;7368462;19;20002;-61
2023/06/22 03:01:16;;;;;;;15.00;7.70;;;;;;;;;;7368604;19;20018;-62
2023/06/22 03:03:41;;;;;;;12.43;8.05;;;;;;;;;;7389204;19;20747;-63
2023/06/22 03:06:06;;;;;;;10.18;7.32;;;;;;;;;;7366288;19;20011;-62
2023/06/22 03:08:32;;;;;;;12.23;7.78;;;;;;;;;;7365966;19;20055;-62
2023/06/22 03:10:57;;;;;;;10.80;7.40;;;;;;;;;;7367993;19;20002;-62
2023/06/22 03:13:23;;;;;;;10.90;7.55;;;;;;;;;;7368112;19;20798;-62
2023/06/22 03:15:49;;;;;;;13.38;7.70;;;;;;;;;;7378929;19;20005;-62
2023/06/22 03:18:15;;;;;;;14.27;7.70;;;;;;;;;;7383345;19;20002;-62
2023/06/22 03:20:41;;;;;;;12.95;8.13;;;;;;;;;;7366982;19;20031;-62
2023/06/22 03:23:06;;;;;;;14.38;8.02;;;;;;;;;;7366710;19;20006;-62
2023/06/22 03:25:31;;;;;;;13.35;8.00;;;;;;;;;;7366590;19;20601;-62
2023/06/22 03:27:56;;;;;;;18.58;8.43;;;;;;;;;;7364827;19;20005;-62
2023/06/22 03:30:22;;;;;;;14.38;8.68;;;;;;;;;;7385952;19;20002;-61
2023/06/22 03:32:47;;;;;;;13.55;7.80;;;;;;;;;;7364685;19;20007;-63
2023/06/22 03:35:13;;;;;;;13.00;8.18;;;;;;;;;;7366667;19;20012;-62
2023/06/22 03:37:39;;;;;;;14.65;7.85;;;;;;;;;;7366839;19;20006;-62
2023/06/22 03:40:05;;;;;;;10.73;7.78;;;;;;;;;;7367250;19;20531;-63
2023/06/22 03:42:31;;;;;;;14.23;7.68;;;;;;;;;;7388287;19;20014;-63
2023/06/22 03:44:56;;;;;;;10.00;7.15;;;;;;;;;;7367107;19;20018;-62
2023/06/22 03:47:22;;;;;;;12.80;8.27;;;;;;;;;;7363087;19;20003;-62
2023/06/22 03:49:47;;;;;;;11.85;7.72;;;;;;;;;;7366345;19;20142;-62
2023/06/22 03:52:13;;;;;;;10.65;7.55;;;;;;;;;;7364935;19;20022;-62
2023/06/22 03:54:38;;;;;;;12.00;7.78;;;;;;;;;;7388154;19;20009;-63
2023/06/22 03:57:04;;;;;;;12.63;7.57;;;;;;;;;;7365302;19;20651;-62
2023/06/22 03:59:29;;;;;;;11.75;7.75;;;;;;;;;;7367219;19;20007;-62
2023/06/22 04:01:54;;;;;;;12.75;7.63;;;;;;;;;;7366675;19;20006;-62
2023/06/22 04:04:20;;;;;;;10.65;7.82;;;;;;;;;;7368439;19;20038;-61
2023/06/22 04:06:46;;;;;;;11.20;7.63;;;;;;;;;;7386841;19;20007;-60
2023/06/22 04:09:12;;;;;;;12.85;7.75;;;;;;;;;;7367709;19;20526;-62
2023/06/22 04:11:37;;;;;;;12.95;7.90;;;;;;;;;;7366055;19;20484;-62
2023/06/22 04:14:02;;;;;;;14.70;7.97;;;;;;;;;;7366029;19;20022;-60
2023/06/22 04:16:27;;;;;;;12.00;7.75;;;;;;;;;;7366656;19;20010;-62
2023/06/22 04:18:53;;;;;;;11.93;7.95;;;;;;;;;;7366733;19;20003;-60
2023/06/22 04:21:19;;;;;;;10.15;7.43;;;;;;;;;;7389807;19;20021;-62
2023/06/22 04:23:45;;;;;;;12.65;7.18;;;;;;;;;;7374548;19;20035;-62
2023/06/22 04:26:11;;;;;;;12.38;6.93;;;;;;;;;;7373742;19;20468;-63
2023/06/22 04:28:36;;;;;;;11.45;7.05;;;;;;;;;;7372977;19;20014;-62
2023/06/22 04:31:02;;;;;;;9.38;7.05;;;;;;;;;;7372642;19;20010;-62
2023/06/22 04:33:31;;;;;;;10.80;7.05;;;;;;;;;;7394061;19;20023;-63
2023/06/22 04:35:57;;;;;;;11.30;6.88;;;;;;;;;;7372548;19;20006;-59
2023/06/22 04:38:24;;;;;;;10.82;6.65;;;;;;;;;;7370064;19;20081;-62
2023/06/22 04:40:53;;;;;;;10.07;7.13;;;;;;;;;;7370563;19;20029;-62
2023/06/22 04:43:18;;;;;;;13.63;8.00;;;;;;;;;;7373871;19;20002;-61
2023/06/22 04:45:43;;;;;;;10.88;7.53;;;;;;;;;;7394559;19;20031;-59
2023/06/22 04:48:09;;;;;;;13.20;7.20;;;;;;;;;;7369602;19;20032;-60
2023/06/22 04:50:38;;;;;;;15.73;7.40;;;;;;;;;;7370864;19;20014;-62
2023/06/22 04:53:05;;;;;;;11.95;8.13;;;;;;;;;;7371885;19;20010;-62
2023/06/22 04:55:32;;;;;;;15.27;8.68;;;;;;;;;;7363521;19;20586;-62
2023/06/22 04:58:04;;;;;;;15.77;8.05;;;;;;;;;;7368962;19;20033;-63
2023/06/22 05:00:30;;;;;;;15.05;8.40;;;;;;;;;;7391466;19;20022;-66
2023/06/22 05:02:56;;;;;;;16.63;8.77;;;;;;;;;;7371166;19;20015;-68
2023/06/22 05:05:22;;;;;;;13.40;8.10;;;;;;;;;;7371254;19;20014;-69
2023/06/22 05:07:48;;;;;;;16.58;8.43;;;;;;;;;;7370530;19;20023;-70
2023/06/22 05:10:14;;;;;;;13.25;9.82;;;;;;;;;;7370031;19;20595;-70
2023/06/22 05:12:40;;;;;;;16.52;9.45;;;;;;;;;;7391148;19;20090;-69
2023/06/22 05:15:09;;;;;;;16.30;8.93;;;;;;;;;;7372444;19;20010;-70
2023/06/22 05:17:35;;;;;;;14.00;8.43;;;;;;;;;;7370035;19;20598;-70
2023/06/22 05:20:02;;;;;;;13.25;8.48;;;;;;;;;;7372468;19;20604;-69
2023/06/22 05:22:27;;;;;;;17.13;8.25;;;;;;;;;;7371354;19;20006;-70
2023/06/22 05:24:52;;;;;;;12.88;7.93;;;;;;;;;;7370887;19;19999;-70
2023/06/22 05:27:17;;;;;;;12.05;6.82;;;;;;;;;;7391032;19;19998;-70
2023/06/22 05:29:43;;;;;;;11.07;7.22;;;;;;;;;;7370782;19;20073;-70
2023/06/22 05:32:09;;;;;;;14.18;7.25;;;;;;;;;;7372126;19;19998;-68
2023/06/22 05:34:34;;;;;;;13.35;7.13;;;;;;;;;;7369643;19;20081;-71
2023/06/22 05:37:00;;;;;;;9.32;6.75;;;;;;;;;;7370503;19;20097;-70
2023/06/22 05:39:25;;;;;;;9.80;6.82;;;;;;;;;;7391251;19;20010;-69
2023/06/22 05:41:51;;;;;;;11.13;6.80;;;;;;;;;;7370619;19;20065;-70
2023/06/22 05:44:17;;;;;;;12.07;7.07;;;;;;;;;;7369708;19;20011;-69
2023/06/22 05:46:48;;;;;;;14.52;6.57;;;;;;;;;;7367864;19;20007;-70
2023/06/22 05:49:13;;;;;;;13.60;6.93;;;;;;;;;;7369774;19;20074;-65
2023/06/22 05:51:39;;;;;;;12.35;6.65;;;;;;;;;;7389023;19;20023;-69
2023/06/22 05:54:05;;;;;;;13.10;6.43;;;;;;;;;;7364285;19;20049;-74
2023/06/22 05:56:30;;;;;;;12.18;6.50;;;;;;;;;;7370007;19;20018;-74
2023/06/22 05:58:55;;;;;;;11.52;6.97;;;;;;;;;;7370817;19;20370;-69
2023/06/22 06:01:21;;;;;;;11.15;6.47;;;;;;;;;;7367204;19;20018;-69
2023/06/22 06:03:47;;;;;;;9.23;6.47;;;;;;;;;;7390556;19;20002;-72
2023/06/22 06:06:12;;;;;;;11.13;7.05;;;;;;;;;;7365950;19;20011;-73
2023/06/22 06:08:38;;;;;;;10.30;7.28;;;;;;;;;;7368880;19;20015;-73
2023/06/22 06:11:04;;;;;;;10.52;7.15;;;;;;;;;;7369787;19;20006;-71
2023/06/22 06:13:29;;;;;;;14.32;7.75;;;;;;;;;;7369580;19;20433;-69
2023/06/22 06:15:57;;;;;;;10.48;6.95;;;;;;;;;;7367560;19;20082;-67
2023/06/22 06:18:23;;;;;;;9.90;7.47;;;;;;;;;;7384201;19;20009;-68
2023/06/22 06:20:48;;;;;;;9.88;7.25;;;;;;;;;;7367834;19;20065;-69
2023/06/22 06:23:14;;;;;;;12.07;7.18;;;;;;;;;;7366958;19;20074;-69
2023/06/22 06:25:39;;;;;;;10.05;6.80;;;;;;;;;;7368664;19;20009;-69
2023/06/22 06:28:04;;;;;;;10.70;6.93;;;;;;;;;;7367671;19;20002;-68
2023/06/22 06:30:30;;;;;;;11.20;7.18;;;;;;;;;;7391682;19;20037;-66
2023/06/22 06:32:55;;;;;;;15.15;7.43;;;;;;;;;;7368547;19;20019;-71
2023/06/22 06:35:21;;;;;;;10.02;6.57;;;;;;;;;;7369265;19;20134;-71
2023/06/22 06:37:49;;;;;;;10.98;6.60;;;;;;;;;;7372248;19;20045;-73
2023/06/22 06:40:16;;;;;;;9.07;6.80;;;;;;;;;;7369705;19;20018;-71
2023/06/22 06:42:45;;;;;;;8.27;6.13;;;;;;;;;;7394176;19;20003;-71
2023/06/22 06:45:23;;;;;;;10.32;6.65;;;;;;;;;;7370063;19;20007;-71
2023/06/22 06:47:50;;;;;;;12.15;7.78;;;;;;;;;;7366858;19;20015;-68
2023/06/22 06:50:16;;;;;;;12.20;7.22;;;;;;;;;;7369439;19;20014;-70
2023/06/22 06:52:41;;;;;;;13.07;6.20;;;;;;;;;;7372920;19;20007;-71
2023/06/22 06:55:11;;;;;;;11.30;7.28;;;;;;;;;;7371061;19;20003;-73
2023/06/22 06:57:37;;;;;;;14.37;7.47;;;;;;;;;;7390085;19;20006;-73
2023/06/22 07:00:09;;;;;;;12.25;7.43;;;;;;;;;;7368479;19;20425;-74
2023/06/22 07:02:34;;;;;;;12.63;7.03;;;;;;;;;;7370036;19;20010;-68
2023/06/22 07:04:59;;;;;;;9.93;6.68;;;;;;;;;;7366056;19;20017;-70
2023/06/22 07:07:25;;;;;;;15.18;7.40;;;;;;;;;;7367201;19;20018;-70
2023/06/22 07:09:50;;;;;;;15.27;7.10;;;;;;;;;;7367368;19;20026;-71
2023/06/22 07:12:15;;;;;;;10.95;7.45;;;;;;;;;;7389111;19;19998;-70
2023/06/22 07:14:41;;;;;;;12.95;7.82;;;;;;;;;;7367632;19;20014;-77
2023/06/22 07:17:06;;;;;;;11.57;6.80;;;;;;;;;;7367486;19;20031;-74
2023/06/22 07:19:33;;;;;;;11.20;6.97;;;;;;;;;;7368680;19;20105;-75
2023/06/22 07:21:58;;;;;;;12.43;7.15;;;;;;;;;;7365040;19;20683;-75
2023/06/22 07:24:23;;;;;;;11.10;6.40;;;;;;;;;;7385926;19;20017;-73
2023/06/22 07:26:50;;;;;;;11.65;6.95;;;;;;;;;;7364630;19;20003;-76
2023/06/22 07:29:17;;;;;;;9.68;5.20;;;;;;;;;;7367055;19;20010;-73
2023/06/22 07:31:42;;;;;;;11.15;6.70;;;;;;;;;;7364348;19;20010;-67
2023/06/22 07:34:07;;;;;;;11.98;6.78;;;;;;;;;;7362728;19;20668;-67
2023/06/22 07:36:34;;;;;;;10.52;6.80;;;;;;;;;;7384784;19;20017;-66
2023/06/22 07:38:59;;;;;;;13.13;6.72;;;;;;;;;;7366297;19;20047;-65
2023/06/22 07:41:25;;;;;;;12.27;6.87;;;;;;;;;;7367749;19;20581;-67
2023/06/22 07:43:51;;;;;;;9.57;7.17;;;;;;;;;;7366531;19;20259;-67
2023/06/22 07:46:16;;;;;;;11.65;6.30;;;;;;;;;;7366210;19;20575;-75
2023/06/22 07:48:43;;;;;;;9.23;7.10;;;;;;;;;;7386405;19;20006;-71
2023/06/22 07:51:08;;;;;;;10.70;7.80;;;;;;;;;;7370126;19;20014;-68
2023/06/22 07:53:34;;;;;;;8.95;5.75;;;;;;;;;;7368767;19;20039;-67
2023/06/22 07:55:59;;;;;;;12.00;7.18;;;;;;;;;;7367847;19;20011;-69
2023/06/22 07:58:24;;;;;;;9.80;7.05;;;;;;;;;;7377119;19;20085;-70
2023/06/22 08:00:50;;;;;;;11.27;7.32;;;;;;;;;;7375029;19;20014;-72
2023/06/22 08:03:15;;;;;;;10.43;6.75;;;;;;;;;;7401420;19;20745;-74
2023/06/22 08:05:41;;;;;;;9.30;6.30;;;;;;;;;;7377469;19;20587;-74
2023/06/22 08:08:06;;;;;;;9.85;7.32;;;;;;;;;;7373412;19;19998;-69
2023/06/22 08:10:31;;;;;;;14.18;7.30;;;;;;;;;;7369284;19;20014;-69
2023/06/22 08:12:57;;;;;;;10.52;7.20;;;;;;;;;;7368462;19;20017;-69
2023/06/22 08:15:22;;;;;;;9.65;6.72;;;;;;;;;;7391312;19;20382;-68
2023/06/22 08:17:48;;;;;;;9.90;6.93;;;;;;;;;;7369362;19;20435;-69
2023/06/22 08:20:13;;;;;;;11.63;6.50;;;;;;;;;;7373234;19;21693;-69
2023/06/22 08:22:42;;;;;;;9.77;6.60;;;;;;;;;;7376390;19;20014;-69
2023/06/22 08:25:08;;;;;;;8.98;7.03;;;;;;;;;;7375559;19;20007;-68
2023/06/22 08:27:34;;;;;;;8.63;6.25;;;;;;;;;;7395062;19;20480;-68
2023/06/22 08:30:00;;;;;;;9.23;6.78;;;;;;;;;;7373064;19;20007;-68
2023/06/22 08:32:27;;;;;;;10.48;7.40;;;;;;;;;;7371052;19;20366;-68
2023/06/22 08:34:54;;;;;;;10.23;7.70;;;;;;;;;;7373334;19;20429;-68
2023/06/22 08:37:20;;;;;;;12.35;6.88;;;;;;;;;;7371720;19;20017;-68
2023/06/22 08:39:46;;;;;;;13.20;6.78;;;;;;;;;;7395415;19;20087;-67
2023/06/22 08:42:11;;;;;;;10.80;6.50;;;;;;;;;;7373229;19;19998;-69
2023/06/22 08:44:37;;;;;;;12.52;7.68;;;;;;;;;;7372409;19;20013;-68
2023/06/22 08:47:03;;;;;;;9.80;6.68;;;;;;;;;;7371720;19;20010;-68
2023/06/22 08:49:28;;;;;;;11.18;7.50;;;;;;;;;;7373012;19;20042;-69
2023/06/22 08:51:55;;;;;;;11.55;7.00;;;;;;;;;;7374284;19;20035;-68
2023/06/22 08:54:21;;;;;;;9.05;6.95;;;;;;;;;;7394732;19;20006;-68
2023/06/22 08:56:46;;;;;;;9.80;6.68;;;;;;;;;;7372255;19;20023;-68
2023/06/22 08:59:12;;;;;;;11.52;7.45;;;;;;;;;;7372336;19;20006;-68
2023/06/22 09:01:37;;;;;;;11.80;7.57;;;;;;;;;;7371948;19;20480;-68
2023/06/22 09:04:03;;;;;;;10.77;7.90;;;;;;;;;;7372203;19;20444;-68
2023/06/22 09:06:31;;;;;;;8.93;7.05;;;;;;;;;;7392820;19;20251;-69
2023/06/22 09:08:56;;;;;;;12.65;7.60;;;;;;;;;;7370952;19;19998;-69
2023/06/22 09:11:21;;;;;;;10.13;8.00;;;;;;;;;;7370976;19;20582;-69
2023/06/22 09:13:47;;;;;;;9.93;6.53;;;;;;;;;;7372191;19;20352;-69
2023/06/22 09:16:12;;;;;;;9.77;6.70;;;;;;;;;;7371933;19;20311;-67
2023/06/22 09:18:37;;;;;;;10.75;6.95;;;;;;;;;;7390333;19;20002;-68
2023/06/22 09:21:03;;;;;;;8.88;6.72;;;;;;;;;;7369464;19;19998;-68
2023/06/22 09:23:28;;;;;;;9.98;6.78;;;;;;;;;;7367749;19;20006;-68
2023/06/22 09:25:54;;;;;;;8.95;6.43;;;;;;;;;;7367878;19;20038;-69
2023/06/22 09:28:19;;;;;;;9.68;6.72;;;;;;;;;;7364419;19;20484;-69
2023/06/22 09:30:44;;;;;;;11.30;7.00;;;;;;;;;;7386660;19;20005;-68
2023/06/22 09:33:10;;;;;;;8.98;6.65;;;;;;;;;;7367110;19;20018;-68
2023/06/22 09:35:35;;;;;;;12.85;6.35;;;;;;;;;;7368039;19;20836;-68
2023/06/22 09:38:01;;;;;;;11.43;6.88;;;;;;;;;;7369666;19;20011;-68
2023/06/22 09:40:26;;;;;;;9.37;7.00;;;;;;;;;;7369895;19;20013;-68
2023/06/22 09:42:51;;;;;;;10.43;6.93;;;;;;;;;;7370078;19;20264;-68
2023/06/22 09:45:16;;;;;;;9.17;6.63;;;;;;;;;;7392826;19;20600;-69
2023/06/22 09:47:42;;;;;;;11.48;6.82;;;;;;;;;;7367081;19;20278;-68
2023/06/22 09:50:08;;;;;;;9.82;6.45;;;;;;;;;;7367393;19;20042;-68
2023/06/22 09:52:34;;;;;;;8.75;6.20;;;;;;;;;;7366585;19;20014;-68
2023/06/22 09:54:59;;;;;;;10.40;6.22;;;;;;;;;;7371288;19;20006;-68
2023/06/22 09:57:24;;;;;;;8.35;5.95;;;;;;;;;;7387121;19;20654;-68
2023/06/22 09:59:49;;;;;;;8.25;5.70;;;;;;;;;;7374134;19;20002;-68
2023/06/22 10:02:15;;;;;;;7.85;5.97;;;;;;;;;;7370602;19;20388;-69
2023/06/22 10:04:40;;;;;;;10.85;6.07;;;;;;;;;;7368235;19;20488;-68
2023/06/22 10:07:06;;;;;;;11.90;6.15;;;;;;;;;;7370648;19;20011;-68
2023/06/22 10:09:31;;;;;;;6.60;4.93;;;;;;;;;;7390601;19;20458;-68
2023/06/22 10:11:56;;;;;;;10.38;5.40;;;;;;;;;;7368258;19;20358;-68
2023/06/22 10:14:22;;;;;;;8.90;6.10;;;;;;;;;;7369664;19;20014;-68
2023/06/22 10:16:48;;;;;;;8.55;6.05;;;;;;;;;;7368890;19;20796;-68
2023/06/22 10:19:13;;;;;;;10.30;6.20;;;;;;;;;;7367814;19;20073;-69
2023/06/22 10:21:38;;;;;;;11.73;5.63;;;;;;;;;;7392479;19;20368;-68
2023/06/22 10:24:07;;;;;;;10.38;5.97;;;;;;;;;;7369249;19;20038;-68
2023/06/22 10:26:33;;;;;;;10.48;5.63;;;;;;;;;;7369035;19;20010;-68
2023/06/22 10:28:59;;;;;;;9.65;5.50;;;;;;;;;;7368652;19;20732;-68
2023/06/22 10:31:25;;;;;;;9.30;5.53;;;;;;;;;;7368265;19;20010;-69
2023/06/22 10:33:50;;;;;;;7.50;5.13;;;;;;;;;;7366500;19;20006;-69
2023/06/22 10:36:15;;;;;;;8.32;5.50;;;;;;;;;;7385877;19;20014;-68
2023/06/22 10:38:41;;;;;;;7.95;4.93;;;;;;;;;;7363497;19;20045;-69
2023/06/22 10:41:06;;;;;;;8.00;5.57;;;;;;;;;;7366278;19;20022;-68
2023/06/22 10:43:31;;;;;;;12.82;6.30;;;;;;;;;;7366485;19;20239;-68
2023/06/22 10:45:57;;;;;;;9.70;5.43;;;;;;;;;;7366742;19;20010;-68
2023/06/22 10:48:22;;;;;;;11.13;5.87;;;;;;;;;;7389676;19;20014;-68
2023/06/22 10:50:47;;;;;;;8.77;5.80;;;;;;;;;;7367400;19;20264;-68
2023/06/22 10:53:13;;;;;;;8.10;5.50;;;;;;;;;;7371855;19;20264;-67
2023/06/22 10:55:38;;;;;;;11.80;5.32;;;;;;;;;;7367454;19;20102;-67
2023/06/22 10:58:03;;;;;;;10.73;5.83;;;;;;;;;;7366316;19;20015;-67
2023/06/22 11:00:28;;;;;;;9.47;5.37;;;;;;;;;;7388218;19;20697;-67
2023/06/22 11:02:54;;;;;;;11.37;5.97;;;;;;;;;;7366861;19;20292;-67
2023/06/22 11:05:19;;;;;;;11.85;5.78;;;;;;;;;;7366283;19;20271;-67
2023/06/22 11:07:45;;;;;;;9.47;6.10;;;;;;;;;;7364473;19;20058;-68
2023/06/22 11:10:12;;;;;;;8.77;5.07;;;;;;;;;;7363913;19;21940;-68
2023/06/22 11:12:37;;;;;;;9.63;5.50;;;;;;;;;;7387484;19;20487;-68
2023/06/22 11:15:03;;;;;;;9.45;5.43;;;;;;;;;;7365398;19;20007;-67
2023/06/22 11:17:28;;;;;;;10.05;6.13;;;;;;;;;;7366118;19;20785;-68
2023/06/22 11:19:53;;;;;;;7.63;5.25;;;;;;;;;;7365709;19;20018;-68
2023/06/22 11:22:19;;;;;;;9.07;5.85;;;;;;;;;;7364370;19;20022;-67
2023/06/22 11:24:44;;;;;;;10.15;5.63;;;;;;;;;;7388943;19;20006;-67
2023/06/22 11:27:09;;;;;;;8.55;5.30;;;;;;;;;;7365962;19;20010;-67
2023/06/22 11:29:35;;;;;;;8.15;5.43;;;;;;;;;;7366315;19;20357;-67
2023/06/22 11:32:01;;;;;;;12.45;5.88;;;;;;;;;;7370862;19;20503;-68
2023/06/22 11:34:27;;;;;;;11.35;6.20;;;;;;;;;;7375574;19;20015;-68
2023/06/22 11:36:53;;;;;;;9.88;5.80;;;;;;;;;;7376193;19;20468;-68
2023/06/22 11:39:18;;;;;;;10.82;5.47;;;;;;;;;;7395740;19;20028;-68
2023/06/22 11:41:43;;;;;;;9.13;5.93;;;;;;;;;;7373693;19;20024;-68
2023/06/22 11:44:09;;;;;;;8.32;5.57;;;;;;;;;;7370674;19;20020;-68
2023/06/22 11:46:34;;;;;;;8.63;5.82;;;;;;;;;;7371048;19;20024;-68
2023/06/22 11:49:00;;;;;;;11.43;5.72;;;;;;;;;;7373764;19;20069;-68
2023/06/22 11:51:25;;;;;;;8.07;5.43;;;;;;;;;;7394739;19;20480;-68
2023/06/22 11:53:51;;;;;;;10.25;5.80;;;;;;;;;;7373167;19;20054;-68
2023/06/22 11:56:16;;;;;;;12.88;6.60;;;;;;;;;;7371588;19;20017;-68
2023/06/22 11:58:41;;;;;;;12.80;6.18;;;;;;;;;;7366710;19;20018;-68
2023/06/22 12:01:07;;;;;;;9.13;5.28;;;;;;;;;;7371273;19;20003;-68
2023/06/22 12:03:32;;;;;;;12.17;6.17;;;;;;;;;;7391759;19;20002;-69
2023/06/22 12:05:58;;;;;;;9.48;5.78;;;;;;;;;;7369865;19;20650;-68
2023/06/22 12:08:24;;;;;;;8.07;5.47;;;;;;;;;;7368466;19;20046;-68
2023/06/22 12:10:50;;;;;;;10.77;5.90;;;;;;;;;;7371254;19;20827;-68
2023/06/22 12:13:15;;;;;;;11.10;6.40;;;;;;;;;;7370908;19;20035;-68
2023/06/22 12:15:41;;;;;;;8.95;5.80;;;;;;;;;;7393920;19;20357;-67
2023/06/22 12:18:06;;;;;;;10.82;5.80;;;;;;;;;;7363479;19;20014;-68
2023/06/22 12:20:32;;;;;;;9.82;6.05;;;;;;;;;;7370603;19;20350;-68
2023/06/22 12:22:58;;;;;;;11.38;6.32;;;;;;;;;;7373347;19;20527;-68
2023/06/22 12:25:23;;;;;;;9.85;5.97;;;;;;;;;;7372291;19;20511;-68
2023/06/22 12:27:49;;;;;;;10.45;5.57;;;;;;;;;;7383503;19;20006;-68
2023/06/22 12:30:16;;;;;;;7.03;4.82;;;;;;;;;;7387771;19;20005;-68
2023/06/22 12:32:41;;;;;;;9.13;5.85;;;;;;;;;;7371423;19;20086;-69
2023/06/22 12:35:11;;;;;;;10.65;6.25;;;;;;;;;;7371867;19;20477;-68
2023/06/22 12:37:37;;;;;;;8.70;6.00;;;;;;;;;;7370384;19;20530;-67
2023/06/22 12:40:03;;;;;;;11.48;6.20;;;;;;;;;;7369769;19;20013;-68
2023/06/22 12:42:29;;;;;;;11.07;5.90;;;;;;;;;;7391059;19;20022;-67
2023/06/22 12:44:54;;;;;;;15.75;6.53;;;;;;;;;;7369853;19;20022;-68
2023/06/22 12:47:20;;;;;;;12.88;6.53;;;;;;;;;;7368010;19;20007;-68
2023/06/22 12:49:45;;;;;;;12.07;6.40;;;;;;;;;;7369171;19;20070;-68
2023/06/22 12:52:11;;;;;;;11.48;6.18;;;;;;;;;;7371703;19;20082;-68
2023/06/22 12:54:36;;;;;;;11.68;6.53;;;;;;;;;;7392315;19;20017;-67
2023/06/22 12:57:02;;;;;;;12.52;6.70;;;;;;;;;;7371115;19;20024;-67
2023/06/22 12:59:27;;;;;;;11.60;6.07;;;;;;;;;;7371406;19;20726;-67
2023/06/22 13:01:52;;;;;;;10.53;6.43;;;;;;;;;;7373700;19;20014;-67
2023/06/22 13:04:18;;;;;;;10.43;6.65;;;;;;;;;;7368733;19;20252;-67
2023/06/22 13:06:47;;;;;;;11.13;6.63;;;;;;;;;;7394383;19;20075;-67
2023/06/22 13:09:19;;;;;;;10.20;5.88;;;;;;;;;;7372153;19;20418;-68
2023/06/22 13:11:44;;;;;;;9.32;5.93;;;;;;;;;;7372556;19;20002;-68
2023/06/22 13:14:10;;;;;;;9.48;6.43;;;;;;;;;;7373022;19;20014;-68
2023/06/22 13:16:35;;;;;;;12.52;6.10;;;;;;;;;;7374497;19;20124;-68
2023/06/22 13:19:01;;;;;;;9.50;5.95;;;;;;;;;;7376676;19;20014;-67
2023/06/22 13:21:26;;;;;;;11.98;6.70;;;;;;;;;;7400148;19;20021;-68
2023/06/22 13:23:51;;;;;;;9.80;5.47;;;;;;;;;;7383091;19;20014;-68
2023/06/22 13:26:17;;;;;;;11.75;6.10;;;;;;;;;;7377611;19;20508;-68
2023/06/22 13:28:42;;;;;;;11.30;5.63;;;;;;;;;;7372868;19;20010;-68
2023/06/22 13:31:07;;;;;;;13.02;6.38;;;;;;;;;;7374778;19;20012;-68
2023/06/22 13:33:33;;;;;;;11.38;6.03;;;;;;;;;;7397253;19;20015;-68
2023/06/22 13:35:58;;;;;;;13.18;6.68;;;;;;;;;;7376506;19;20020;-68
2023/06/22 13:38:24;;;;;;;11.80;5.30;;;;;;;;;;7375197;19;20054;-69
2023/06/22 13:40:49;;;;;;;11.35;5.10;;;;;;;;;;7375698;19;20010;-69
2023/06/22 13:43:17;;;;;;;12.27;5.00;;;;;;;;;;7377969;19;20046;-69
2023/06/22 13:45:43;;;;;;;13.18;4.80;;;;;;;;;;7396238;19;20013;-69
2023/06/22 13:48:08;;;;;;;11.13;4.75;;;;;;;;;;7372219;19;20006;-69
2023/06/22 13:50:33;;;;;;;9.98;4.85;;;;;;;;;;7371923;19;20006;-68
2023/06/22 13:52:59;;;;;;;12.40;4.43;;;;;;;;;;7374845;19;20018;-68
2023/06/22 13:55:24;;;;;;;10.40;4.63;;;;;;;;;;7372139;19;20228;-67
2023/06/22 13:57:51;;;;;;;15.77;5.05;;;;;;;;;;7377674;19;19991;-68
2023/06/22 14:00:16;;;;;;;12.45;4.75;;;;;;;;;;7394650;19;20003;-68
2023/06/22 14:02:42;;;;;;;9.23;4.50;;;;;;;;;;7372830;19;20002;-69
2023/06/22 14:05:08;;;;;;;9.90;4.63;;;;;;;;;;7371153;19;20005;-67
2023/06/22 14:07:33;;;;;;;17.70;4.68;;;;;;;;;;7372126;19;20033;-69
2023/06/22 14:10:00;;;;;;;12.98;4.18;;;;;;;;;;7372447;19;20089;-69
2023/06/22 14:12:25;;;;;;;8.50;4.10;;;;;;;;;;7391775;19;20015;-69
2023/06/22 14:14:51;;;;;;;14.95;5.15;;;;;;;;;;7371434;19;20006;-69
2023/06/22 14:17:16;;;;;;;13.88;4.10;;;;;;;;;;7368064;19;20070;-69
2023/06/22 14:19:41;;;;;;;15.10;5.20;;;;;;;;;;7369235;19;20010;-68
2023/06/22 14:22:07;;;;;;;13.68;4.35;;;;;;;;;;7368074;19;20009;-69
2023/06/22 14:24:32;;;;;;;12.35;4.93;;;;;;;;;;7391280;19;20007;-68
2023/06/22 14:26:57;;;;;;;14.05;4.68;;;;;;;;;;7368709;19;20023;-68